Terminal Aerodrome Forecast
Issued by NWS Twin Cities, MN

Home | Current Version | Previous Version | Graphics & Text | Print | Product List | Glossary On
Versions: 1 2 3 4 5 6 7 8 9 10 11 12 13 14 15 16 17 18
000
FTUS43 KMPX 210617 CCA
TAFEAU
TAF COR
KEAU 210617Z 2106/2206 VRB04KT 6SM BR SCT001
      TEMPO 2106/2110 1SM BR VV001
     FM211000 00000KT 3SM BR FEW200
     FM211300 VRB03KT P6SM FEW200
     FM211600 16009KT P6SM SCT100 BKN200
     FM220000 14007KT P6SM OVC050 PROB30 2203/2206 5SM -TSRA
      BKN035CB=

USA.gov is the U.S. government's official web portal to all federal, state and local government web resources and services.